WSSS/SIN METAR and TAF weather

Enter ICAO airport designator
Station Type Date Time Source
WSSS METAR 2022/06/30 13:00 UTC NOAA

WSSS 301300Z 14005KT 9999 FEW018 BKN150 27/24 Q1007 NOSIG


Station Type Date Time Source
WSSS Decoded METAR 2022/06/30 13:00 UTC NOAA

Singapore / Changi Airport, Singapore (WSSS) 01-22N 103-59E 16M
Jun 30, 2022 - 09:00 AM EDT / 2022.06.30 1300 UTC
Wind: from the SE (140 degrees) at 6 MPH (5 KT):0
Visibility: greater than 7 mile(s):0
Sky conditions: mostly cloudy
Temperature: 80 F (27 C)
Dew Point: 75 F (24 C)
Relative Humidity: 83%
Pressure (altimeter): 29.74 in. Hg (1007 hPa)
ob: WSSS 301300Z 14005KT 9999 FEW018 BKN150 27/24 Q1007 NOSIG
cycle: 13

Station Type Date Time Source
WSSS TAF 2022/06/30 12:06 UTC NOAA

TAF WSSS 301100Z 3012/0118 21009KT 9999 FEW015 SCT020

Example: see airport list